createdAt,value
2023-03-05T00:00:50.437Z,72.20
2023-03-05T00:01:50.389Z,71.41
2023-03-05T00:02:50.481Z,71.37
2023-03-05T00:03:50.409Z,70.86
2023-03-05T00:04:50.364Z,70.65
2023-03-05T00:05:50.385Z,70.10
2023-03-05T00:06:50.325Z,69.70
2023-03-05T00:07:50.315Z,68.98
2023-03-05T00:08:50.328Z,69.21
2023-03-05T00:09:50.291Z,69.07
2023-03-05T00:10:50.503Z,68.22
2023-03-05T00:11:50.288Z,67.71
2023-03-05T00:12:50.251Z,67.19
2023-03-05T00:13:50.279Z,67.15
2023-03-05T00:14:50.234Z,67.53
2023-03-05T00:15:50.235Z,66.84
2023-03-05T00:16:50.395Z,67.15
2023-03-05T00:17:50.202Z,67.12
2023-03-05T00:18:50.225Z,67.25
2023-03-05T00:19:50.184Z,67.49
2023-03-05T00:20:50.152Z,67.80
2023-03-05T00:21:50.155Z,68.01
2023-03-05T00:22:50.331Z,67.46
2023-03-05T00:23:50.143Z,66.91
2023-03-05T00:24:50.121Z,66.77
2023-03-05T00:25:50.104Z,67.29
2023-03-05T00:26:50.108Z,66.87
2023-03-05T00:27:50.097Z,66.50
2023-03-05T00:28:50.344Z,66.05
2023-03-05T00:29:50.072Z,66.84
2023-03-05T00:30:50.094Z,66.33
2023-03-05T00:31:50.039Z,66.12
2023-03-05T00:32:50.036Z,65.58
2023-03-05T00:33:50.017Z,65.78
2023-03-05T00:34:50.053Z,65.61
2023-03-05T00:35:50.040Z,65.61
2023-03-05T00:36:49.996Z,65.92
2023-03-05T00:37:49.995Z,66.15
2023-03-05T00:38:49.959Z,66.25
2023-03-05T00:39:49.974Z,66.56
2023-03-05T00:40:49.957Z,66.46
2023-03-05T00:41:49.959Z,66.25
2023-03-05T00:42:49.918Z,65.92
2023-03-05T00:43:49.909Z,65.53
2023-03-05T00:44:49.910Z,66.05
2023-03-05T00:45:49.915Z,66.15
2023-03-05T00:46:49.989Z,65.92
2023-03-05T00:47:49.884Z,65.81
2023-03-05T00:48:49.846Z,65.84
2023-03-05T00:49:49.885Z,65.68
2023-03-05T00:50:49.829Z,65.26
2023-03-05T00:51:49.849Z,64.96
2023-03-05T00:52:49.847Z,64.96
2023-03-05T00:53:49.805Z,65.16
2023-03-05T00:54:49.776Z,65.40
2023-03-05T00:55:49.781Z,66.02
2023-03-05T00:56:49.761Z,66.02
2023-03-05T00:57:49.753Z,65.81
2023-03-05T00:58:49.756Z,65.78
2023-03-05T00:59:49.727Z,65.58
2023-03-05T01:00:49.719Z,66.33
2023-03-05T01:01:49.716Z,66.19
2023-03-05T01:02:49.695Z,66.40
2023-03-05T01:03:49.668Z,66.50
2023-03-05T01:04:49.751Z,66.09
2023-03-05T01:05:49.659Z,66.30
2023-03-05T01:06:49.643Z,66.06
2023-03-05T01:07:49.620Z,65.68
2023-03-05T01:08:49.611Z,65.89
2023-03-05T01:09:49.584Z,65.86
2023-03-05T01:10:49.622Z,66.06
2023-03-05T01:11:49.615Z,65.65
2023-03-05T01:12:49.580Z,65.75
2023-03-05T01:13:49.543Z,66.09
2023-03-05T01:14:49.541Z,66.43
2023-03-05T01:15:49.570Z,66.97
2023-03-05T01:16:49.499Z,67.39
2023-03-05T01:17:49.508Z,67.15
2023-03-05T01:18:49.491Z,66.61
2023-03-05T01:19:49.465Z,66.50
2023-03-05T01:20:49.457Z,66.53
2023-03-05T01:21:49.487Z,66.74
2023-03-05T01:22:49.446Z,66.64
2023-03-05T01:23:49.430Z,66.53
2023-03-05T01:24:49.413Z,66.19
2023-03-05T01:25:49.395Z,66.09
2023-03-05T01:26:49.404Z,65.92
2023-03-05T01:27:49.405Z,66.12
2023-03-05T01:28:49.389Z,65.89
2023-03-05T01:29:49.345Z,65.75
2023-03-05T01:30:49.344Z,65.23
2023-03-05T01:31:49.407Z,65.03
2023-03-05T01:32:49.346Z,64.93
2023-03-05T01:33:49.313Z,65.99
2023-03-05T01:34:49.297Z,67.43
2023-03-05T01:35:49.364Z,67.33
2023-03-05T01:36:49.273Z,67.25
2023-03-05T01:37:49.255Z,66.91
2023-03-05T01:38:49.282Z,67.63
2023-03-05T01:39:49.234Z,67.22
2023-03-05T01:40:49.293Z,66.91
2023-03-05T01:41:49.213Z,66.61
2023-03-05T01:42:49.221Z,67.43
2023-03-05T01:43:49.196Z,66.91
2023-03-05T01:44:49.216Z,66.71
2023-03-05T01:45:49.223Z,66.50
2023-03-05T01:46:49.158Z,67.05
2023-03-05T01:47:49.153Z,67.39
2023-03-05T01:48:49.139Z,67.66
2023-03-05T01:49:49.126Z,67.43
2023-03-05T01:50:49.150Z,67.43
2023-03-05T01:51:49.095Z,67.12
2023-03-05T01:52:49.110Z,66.71
2023-03-05T01:53:49.091Z,66.30
2023-03-05T01:54:49.066Z,66.47
2023-03-05T01:55:49.047Z,66.27
2023-03-05T01:56:49.067Z,65.99
2023-03-05T01:57:49.036Z,66.19
2023-03-05T01:58:49.049Z,65.99
2023-03-05T01:59:49.034Z,66.30
2023-03-05T02:00:49.036Z,66.61
2023-03-05T02:01:49.027Z,66.50
2023-03-05T02:02:49.011Z,66.19
2023-03-05T02:03:48.992Z,65.95
2023-03-05T02:04:48.951Z,65.86
2023-03-05T02:05:48.954Z,65.75
2023-03-05T02:06:48.927Z,65.75
2023-03-05T02:07:48.937Z,65.86
2023-03-05T02:08:48.905Z,66.27
2023-03-05T02:09:48.898Z,66.16
2023-03-05T02:10:48.888Z,65.72
2023-03-05T02:11:48.905Z,65.75
2023-03-05T02:12:48.881Z,66.37
2023-03-05T02:13:48.887Z,66.61
2023-03-05T02:14:48.852Z,66.61
2023-03-05T02:15:48.822Z,67.02
2023-03-05T02:16:48.905Z,67.22
2023-03-05T02:17:48.799Z,67.22
2023-03-05T02:18:48.789Z,66.91
2023-03-05T02:19:48.839Z,66.81
2023-03-05T02:20:48.762Z,67.02
2023-03-05T02:21:48.765Z,66.91
2023-03-05T02:22:48.762Z,66.81
2023-03-05T02:23:48.759Z,66.78
2023-03-05T02:24:48.748Z,66.47
2023-03-05T02:25:48.759Z,66.37
2023-03-05T02:26:48.702Z,66.27
2023-03-05T02:27:48.705Z,66.27
2023-03-05T02:28:48.690Z,66.27
2023-03-05T02:29:48.676Z,66.27
2023-03-05T02:30:48.650Z,66.27
2023-03-05T02:31:48.747Z,66.37
2023-03-05T02:32:48.659Z,66.40
2023-03-05T02:33:48.621Z,67.02
2023-03-05T02:34:48.652Z,67.12
2023-03-05T02:35:48.613Z,66.91
2023-03-05T02:36:48.693Z,67.15
2023-03-05T02:37:48.576Z,67.70
2023-03-05T02:38:48.562Z,67.87
2023-03-05T02:39:48.560Z,67.97
2023-03-05T02:40:48.552Z,67.70
2023-03-05T02:41:48.542Z,67.90
2023-03-05T02:42:48.542Z,67.87
2023-03-05T02:43:48.498Z,67.80
2023-03-05T02:44:48.568Z,67.80
2023-03-05T02:45:48.504Z,68.32
2023-03-05T02:46:48.520Z,68.18
2023-03-05T02:47:48.446Z,68.42
2023-03-05T02:48:48.496Z,69.10
2023-03-05T02:49:48.435Z,69.75
2023-03-05T02:50:48.433Z,70.17
2023-03-05T02:51:48.421Z,70.13
2023-03-05T02:52:48.397Z,70.57
2023-03-05T02:53:48.380Z,71.23
2023-03-05T02:54:48.402Z,70.99
2023-03-05T02:55:48.365Z,71.09
2023-03-05T02:56:48.346Z,70.89
2023-03-05T02:57:48.358Z,71.20
2023-03-05T02:58:48.329Z,70.44
2023-03-05T02:59:48.324Z,71.30
2023-03-05T03:00:48.357Z,71.41
2023-03-05T03:01:48.284Z,71.16
2023-03-05T03:02:48.314Z,71.41
2023-03-05T03:03:48.267Z,71.26
2023-03-05T03:04:48.269Z,70.99
2023-03-05T03:05:48.322Z,70.96
2023-03-05T03:06:48.240Z,70.65
2023-03-05T03:07:48.232Z,70.47
2023-03-05T03:08:48.198Z,71.23
2023-03-05T03:09:48.188Z,71.41
2023-03-05T03:10:48.194Z,71.09
2023-03-05T03:11:48.234Z,70.65
2023-03-05T03:12:48.160Z,70.34
2023-03-05T03:13:48.186Z,70.68
2023-03-05T03:14:48.137Z,70.54
2023-03-05T03:15:48.133Z,70.47
2023-03-05T03:16:48.195Z,70.68
2023-03-05T03:17:48.139Z,70.54
2023-03-05T03:18:48.137Z,69.62
2023-03-05T03:19:48.104Z,69.51
2023-03-05T03:20:48.100Z,69.72
2023-03-05T03:21:48.067Z,69.72
2023-03-05T03:22:48.103Z,69.82
2023-03-05T03:23:48.030Z,69.59
2023-03-05T03:24:48.022Z,69.20
2023-03-05T03:25:48.022Z,68.51
2023-03-05T03:26:48.003Z,69.06
2023-03-05T03:27:48.031Z,68.82
2023-03-05T03:28:47.974Z,68.00
2023-03-05T03:29:47.966Z,67.69
2023-03-05T03:30:47.971Z,66.76
2023-03-05T03:31:47.969Z,66.14
2023-03-05T03:32:47.941Z,66.48
2023-03-05T03:33:47.965Z,66.48
2023-03-05T03:34:47.921Z,66.27
2023-03-05T03:35:47.931Z,66.45
2023-03-05T03:36:47.907Z,65.62
2023-03-05T03:37:47.911Z,65.83
2023-03-05T03:38:47.875Z,65.55
2023-03-05T03:39:47.900Z,65.62
2023-03-05T03:40:47.837Z,65.52
2023-03-05T03:41:47.827Z,65.55
2023-03-05T03:42:47.819Z,65.55
2023-03-05T03:43:47.827Z,65.21
2023-03-05T03:44:47.852Z,64.80
2023-03-05T03:45:47.827Z,64.70
2023-03-05T03:46:47.772Z,64.59
2023-03-05T03:47:47.778Z,64.80
2023-03-05T03:48:47.741Z,64.59
2023-03-05T03:49:47.740Z,64.83
2023-03-05T03:50:47.779Z,65.00
2023-03-05T03:51:47.745Z,64.49
2023-03-05T03:52:47.728Z,64.42
2023-03-05T03:53:47.693Z,64.83
2023-03-05T03:54:47.683Z,64.70
2023-03-05T03:55:47.692Z,64.59
2023-03-05T03:56:47.668Z,64.80
2023-03-05T03:57:47.672Z,64.80
2023-03-05T03:58:47.633Z,65.00
2023-03-05T03:59:47.620Z,65.14
2023-03-05T04:00:47.645Z,65.11
2023-03-05T04:01:47.630Z,65.55
2023-03-05T04:02:47.601Z,65.55
2023-03-05T04:03:47.579Z,65.55
2023-03-05T04:04:47.573Z,65.97
2023-03-05T04:05:47.577Z,65.73
2023-03-05T04:06:47.572Z,65.55
2023-03-05T04:07:47.559Z,65.86
2023-03-05T04:08:47.528Z,66.17
2023-03-05T04:09:47.531Z,65.76
2023-03-05T04:10:47.495Z,65.97
2023-03-05T04:11:47.486Z,65.73
2023-03-05T04:12:47.483Z,66.10
2023-03-05T04:13:47.482Z,66.48
2023-03-05T04:14:47.478Z,66.72
2023-03-05T04:15:47.464Z,66.72
2023-03-05T04:16:47.422Z,66.93
2023-03-05T04:17:47.429Z,67.58
2023-03-05T04:18:47.413Z,68.23
2023-03-05T04:19:47.446Z,68.19
2023-03-05T04:20:47.374Z,67.50
2023-03-05T04:21:47.420Z,67.50
2023-03-05T04:22:47.377Z,67.06
2023-03-05T04:23:47.343Z,67.13
2023-03-05T04:24:47.385Z,66.93
2023-03-05T04:25:47.388Z,66.96
2023-03-05T04:26:47.314Z,66.72
2023-03-05T04:27:47.312Z,66.61
2023-03-05T04:28:47.338Z,66.30
2023-03-05T04:29:47.264Z,66.17
2023-03-05T04:30:47.310Z,65.97
2023-03-05T04:31:47.280Z,65.97
2023-03-05T04:32:47.259Z,65.42
2023-03-05T04:33:47.250Z,65.31
2023-03-05T04:34:47.217Z,64.90
2023-03-05T04:35:47.275Z,64.70
2023-03-05T04:36:47.214Z,64.59
2023-03-05T04:37:47.169Z,64.36
2023-03-05T04:38:47.172Z,63.84
2023-03-05T04:39:47.148Z,63.35
2023-03-05T04:40:47.149Z,63.67
2023-03-05T04:41:47.165Z,63.90
2023-03-05T04:42:47.130Z,64.11
2023-03-05T04:43:47.116Z,64.11
2023-03-05T04:44:47.088Z,64.00
2023-03-05T04:45:47.077Z,63.87
2023-03-05T04:46:47.115Z,63.87
2023-03-05T04:47:47.102Z,63.53
2023-03-05T04:48:47.070Z,63.19
2023-03-05T04:49:47.029Z,62.75
2023-03-05T04:50:47.016Z,62.44
2023-03-05T04:51:47.015Z,63.06
2023-03-05T04:52:47.062Z,62.99
2023-03-05T04:53:47.089Z,62.99
2023-03-05T04:54:46.978Z,63.06
2023-03-05T04:55:46.966Z,63.06
2023-03-05T04:56:46.992Z,63.27
2023-03-05T04:57:46.957Z,63.27
2023-03-05T04:58:46.997Z,63.27
2023-03-05T04:59:46.986Z,63.27
2023-03-05T05:00:46.965Z,63.17
2023-03-05T05:01:47.050Z,63.17
2023-03-05T05:02:47.004Z,63.81
2023-03-05T05:03:46.997Z,63.84
2023-03-05T05:04:46.874Z,63.64
2023-03-05T05:05:46.868Z,63.32
2023-03-05T05:06:46.835Z,63.12
2023-03-05T05:07:46.849Z,63.01
2023-03-05T05:08:46.873Z,63.43
2023-03-05T05:09:46.813Z,63.81
2023-03-05T05:10:46.817Z,63.81
2023-03-05T05:11:46.772Z,63.81
2023-03-05T05:12:46.772Z,64.53
2023-03-05T05:13:46.756Z,64.43
2023-03-05T05:14:46.751Z,64.43
2023-03-05T05:15:46.749Z,64.43
2023-03-05T05:16:46.748Z,64.12
2023-03-05T05:17:46.711Z,63.71
2023-03-05T05:18:46.704Z,63.19
2023-03-05T05:19:46.684Z,63.53
2023-03-05T05:20:46.676Z,63.32
2023-03-05T05:21:46.691Z,63.29
2023-03-05T05:22:46.657Z,62.99
2023-03-05T05:23:46.646Z,62.88
2023-03-05T05:24:46.675Z,62.88
2023-03-05T05:25:46.614Z,62.47
2023-03-05T05:26:46.601Z,62.57
2023-03-05T05:27:46.607Z,62.81
2023-03-05T05:28:46.617Z,63.04
2023-03-05T05:29:46.561Z,63.46
2023-03-05T05:30:46.593Z,63.67
2023-03-05T05:31:46.646Z,63.56
2023-03-05T05:32:46.553Z,63.97
2023-03-05T05:33:48.759Z,63.35
2023-03-05T05:34:46.503Z,63.56
2023-03-05T05:35:46.550Z,63.43
2023-03-05T05:36:46.489Z,63.19
2023-03-05T05:37:46.476Z,62.78
2023-03-05T05:38:46.466Z,62.47
2023-03-05T05:39:46.458Z,62.68
2023-03-05T05:40:46.453Z,62.78
2023-03-05T05:41:46.429Z,62.99
2023-03-05T05:42:46.408Z,63.60
2023-03-05T05:43:46.420Z,63.74
2023-03-05T05:44:46.432Z,63.81
2023-03-05T05:45:46.477Z,63.71
2023-03-05T05:46:46.420Z,63.81
2023-03-05T05:47:46.378Z,63.81
2023-03-05T05:48:46.372Z,63.60
2023-03-05T05:49:46.333Z,64.12
2023-03-05T05:50:46.353Z,64.43
2023-03-05T05:51:46.311Z,64.64
2023-03-05T05:52:46.312Z,63.32
2023-03-05T05:53:46.280Z,63.60
2023-03-05T05:54:46.274Z,63.40
2023-03-05T05:55:46.265Z,63.40
2023-03-05T05:56:46.282Z,63.60
2023-03-05T05:57:46.232Z,63.71
2023-03-05T05:58:46.226Z,63.95
2023-03-05T05:59:46.214Z,64.46
2023-03-05T06:00:46.214Z,62.71
2023-03-05T06:01:46.205Z,63.12
2023-03-05T06:02:46.229Z,63.01
2023-03-05T06:03:46.158Z,63.53
2023-03-05T06:04:46.153Z,63.81
2023-03-05T06:05:46.155Z,63.19
2023-03-05T06:06:46.125Z,63.09
2023-03-05T06:07:46.141Z,63.12
2023-03-05T06:08:46.121Z,62.19
2023-03-05T06:09:46.095Z,62.40
2023-03-05T06:10:46.098Z,62.74
2023-03-05T06:11:46.083Z,63.04
2023-03-05T06:12:46.069Z,63.32
2023-03-05T06:13:46.071Z,63.43
2023-03-05T06:14:46.039Z,63.22
2023-03-05T06:15:46.024Z,62.94
2023-03-05T06:16:46.066Z,63.59
2023-03-05T06:17:46.038Z,64.03
2023-03-05T06:18:46.006Z,64.11
2023-03-05T06:19:46.029Z,63.59
2023-03-05T06:20:45.986Z,63.25
2023-03-05T06:21:45.948Z,62.94
2023-03-05T06:22:45.933Z,63.12
2023-03-05T06:23:45.942Z,63.29
2023-03-05T06:24:45.992Z,63.19
2023-03-05T06:25:45.946Z,62.88
2023-03-05T06:26:45.963Z,62.68
2023-03-05T06:27:45.911Z,62.47
2023-03-05T06:28:45.877Z,62.37
2023-03-05T06:29:45.861Z,62.88
2023-03-05T06:30:45.868Z,63.09
2023-03-05T06:31:45.872Z,63.19
2023-03-05T06:32:45.837Z,62.88
2023-03-05T06:33:45.993Z,62.71
2023-03-05T06:34:45.804Z,62.84
2023-03-05T06:35:45.823Z,63.15
2023-03-05T06:36:45.811Z,63.22
2023-03-05T06:37:45.765Z,63.64
2023-03-05T06:38:46.528Z,63.43
2023-03-05T06:39:45.735Z,63.09
2023-03-05T06:40:45.725Z,63.19
2023-03-05T06:41:45.737Z,63.40
2023-03-05T06:42:45.735Z,63.32
2023-03-05T06:43:45.693Z,62.84
2023-03-05T06:44:47.248Z,63.12
2023-03-05T06:45:45.770Z,62.88
2023-03-05T06:46:45.669Z,62.81
2023-03-05T06:47:45.652Z,63.46
2023-03-05T06:48:45.651Z,63.90
2023-03-05T06:49:45.632Z,64.76
2023-03-05T06:50:45.617Z,65.03
2023-03-05T06:51:45.612Z,64.93
2023-03-05T06:52:45.590Z,65.37
2023-03-05T06:53:47.245Z,65.48
2023-03-05T06:54:45.572Z,65.69
2023-03-05T06:55:45.557Z,65.34
2023-03-05T06:56:45.550Z,65.24
2023-03-05T06:57:45.578Z,65.82
2023-03-05T06:58:45.525Z,66.99
2023-03-05T06:59:45.553Z,67.40
2023-03-05T07:00:45.498Z,67.78
2023-03-05T07:01:45.581Z,67.13
2023-03-05T07:02:45.618Z,67.27
2023-03-05T07:03:45.462Z,67.58
2023-03-05T07:04:45.482Z,67.65
2023-03-05T07:05:45.448Z,67.58
2023-03-05T07:06:45.436Z,68.02
2023-03-05T07:07:45.438Z,68.40
2023-03-05T07:08:45.393Z,68.09
2023-03-05T07:09:45.387Z,67.93
2023-03-05T07:10:45.388Z,67.10
2023-03-05T07:11:45.362Z,67.54
2023-03-05T07:12:45.348Z,68.19
2023-03-05T07:13:45.330Z,68.68
2023-03-05T07:14:45.347Z,68.37
2023-03-05T07:15:45.343Z,68.58
2023-03-05T07:16:45.388Z,68.06
2023-03-05T07:17:45.320Z,68.48
2023-03-05T07:18:45.289Z,68.24
2023-03-05T07:19:45.286Z,68.78
2023-03-05T07:20:45.292Z,69.30
2023-03-05T07:21:45.335Z,69.06
2023-03-05T07:22:45.261Z,68.51
2023-03-05T07:23:45.226Z,68.13
2023-03-05T07:24:45.201Z,68.54
2023-03-05T07:25:45.199Z,68.54
2023-03-05T07:26:46.445Z,68.85
2023-03-05T07:27:45.200Z,69.06
2023-03-05T07:28:45.170Z,69.06
2023-03-05T07:29:45.162Z,68.82
2023-03-05T07:30:45.175Z,68.85
2023-03-05T07:31:45.191Z,69.37
2023-03-05T07:32:45.113Z,69.44
2023-03-05T07:33:45.139Z,69.24
2023-03-05T07:34:45.109Z,69.24
2023-03-05T07:35:45.095Z,69.10
2023-03-05T07:36:45.062Z,69.24
2023-03-05T07:37:45.044Z,70.06
2023-03-05T07:38:45.145Z,69.85
2023-03-05T07:39:46.941Z,70.64
2023-03-05T07:40:45.025Z,71.57
2023-03-05T07:41:45.002Z,72.19
2023-03-05T07:42:45.158Z,73.16
2023-03-05T07:43:44.982Z,73.12
2023-03-05T07:44:45.035Z,73.02
2023-03-05T07:45:45.107Z,72.67
2023-03-05T07:46:44.981Z,72.26
2023-03-05T07:47:44.938Z,73.02
2023-03-05T07:48:44.944Z,73.54
2023-03-05T07:49:44.936Z,73.85
2023-03-05T07:50:44.928Z,73.43
2023-03-05T07:51:44.908Z,74.29
2023-03-05T07:52:44.878Z,74.77
2023-03-05T07:53:44.866Z,74.15
2023-03-05T07:54:44.854Z,74.05
2023-03-05T07:55:44.919Z,74.46
2023-03-05T07:56:44.864Z,74.26
2023-03-05T07:57:44.834Z,74.36
2023-03-05T07:58:45.470Z,74.67
2023-03-05T07:59:44.807Z,73.91
2023-03-05T08:00:44.795Z,73.95
2023-03-05T08:01:44.790Z,74.46
2023-03-05T08:02:44.802Z,74.67
2023-03-05T08:03:44.808Z,74.98
2023-03-05T08:04:44.736Z,74.88
2023-03-05T08:05:44.725Z,74.57
2023-03-05T08:06:44.859Z,74.26
2023-03-05T08:07:44.700Z,74.26
2023-03-05T08:08:45.937Z,74.46
2023-03-05T08:09:44.685Z,74.71
2023-03-05T08:10:44.723Z,74.81
2023-03-05T08:11:44.669Z,74.88
2023-03-05T08:12:44.629Z,74.50
2023-03-05T08:13:44.643Z,74.57
2023-03-05T08:14:44.645Z,74.12
2023-03-05T08:15:44.662Z,73.60
2023-03-05T08:16:47.199Z,74.05
2023-03-05T08:17:44.575Z,73.91
2023-03-05T08:18:44.601Z,73.43
2023-03-05T08:19:44.604Z,73.64
2023-03-05T08:20:44.564Z,73.43
2023-03-05T08:21:44.548Z,73.43
2023-03-05T08:22:44.557Z,73.19
2023-03-05T08:23:44.514Z,72.74
2023-03-05T08:24:44.499Z,72.16
2023-03-05T08:25:44.508Z,72.33
2023-03-05T08:26:44.478Z,72.09
2023-03-05T08:27:44.477Z,71.16
2023-03-05T08:28:44.477Z,71.20
2023-03-05T08:29:44.438Z,71.61
2023-03-05T08:30:44.461Z,71.44
2023-03-05T08:31:44.456Z,71.20
2023-03-05T08:32:44.408Z,70.51
2023-03-05T08:33:44.413Z,69.65
2023-03-05T08:34:44.422Z,68.83
2023-03-05T08:35:44.608Z,68.62
2023-03-05T08:36:44.418Z,68.96
2023-03-05T08:37:44.431Z,69.51
2023-03-05T08:38:44.329Z,70.13
2023-03-05T08:39:44.406Z,69.93
2023-03-05T08:40:44.305Z,70.23
2023-03-05T08:41:44.349Z,69.93
2023-03-05T08:42:44.319Z,70.13
2023-03-05T08:43:44.317Z,70.13
2023-03-05T08:44:47.913Z,69.69
2023-03-05T08:45:44.261Z,69.14
2023-03-05T08:46:44.336Z,68.66
2023-03-05T08:47:44.292Z,69.07
2023-03-05T08:48:44.320Z,69.45
2023-03-05T08:49:44.211Z,68.32
2023-03-05T08:50:44.212Z,68.38
2023-03-05T08:51:44.207Z,69.20
2023-03-05T08:52:44.188Z,69.85
2023-03-05T08:53:44.182Z,69.24
2023-03-05T08:54:44.140Z,68.79
2023-03-05T08:55:44.296Z,69.03
2023-03-05T08:56:44.154Z,69.96
2023-03-05T08:57:44.120Z,69.41
2023-03-05T08:58:44.115Z,68.90
2023-03-05T08:59:44.122Z,68.86
2023-03-05T09:00:44.111Z,68.14
2023-03-05T09:01:44.141Z,68.55
2023-03-05T09:02:44.081Z,68.17
2023-03-05T09:03:44.060Z,68.14
2023-03-05T09:04:44.072Z,67.70
2023-03-05T09:05:44.034Z,67.08
2023-03-05T09:06:44.027Z,67.49
2023-03-05T09:07:44.004Z,66.97
2023-03-05T09:08:43.994Z,66.56
2023-03-05T09:09:44.001Z,67.42
2023-03-05T09:10:43.997Z,67.60
2023-03-05T09:11:43.973Z,67.18
2023-03-05T09:12:43.955Z,67.45
2023-03-05T09:13:43.957Z,67.38
2023-03-05T09:14:43.944Z,67.97
2023-03-05T09:15:43.935Z,67.39
2023-03-05T09:16:43.939Z,66.70
2023-03-05T09:17:43.905Z,67.14
2023-03-05T09:18:43.887Z,67.32
2023-03-05T09:19:43.866Z,66.94
2023-03-05T09:20:43.864Z,67.24
2023-03-05T09:21:43.873Z,67.66
2023-03-05T09:22:43.832Z,67.03
2023-03-05T09:23:43.835Z,67.00
2023-03-05T09:24:43.833Z,66.83
2023-03-05T09:25:43.794Z,67.14
2023-03-05T09:26:43.796Z,67.35
2023-03-05T09:27:43.819Z,67.35
2023-03-05T09:28:43.772Z,67.35
2023-03-05T09:29:43.789Z,66.97
2023-03-05T09:30:43.773Z,66.36
2023-03-05T09:31:43.759Z,66.63
2023-03-05T09:32:43.766Z,67.24
2023-03-05T09:33:43.717Z,66.83
2023-03-05T09:34:43.691Z,67.03
2023-03-05T09:35:43.840Z,66.97
2023-03-05T09:36:43.673Z,67.17
2023-03-05T09:37:43.669Z,66.83
2023-03-05T09:38:43.654Z,66.31
2023-03-05T09:39:43.656Z,66.49
2023-03-05T09:40:43.633Z,66.39
2023-03-05T09:41:43.605Z,66.05
2023-03-05T09:42:43.604Z,65.50
2023-03-05T09:43:43.607Z,64.92
2023-03-05T09:44:43.618Z,65.91
2023-03-05T09:45:43.649Z,66.28
2023-03-05T09:46:43.569Z,66.08
2023-03-05T09:47:43.583Z,65.39
2023-03-05T09:48:43.545Z,65.25
2023-03-05T09:49:43.537Z,65.15
2023-03-05T09:50:43.534Z,65.46
2023-03-05T09:51:43.525Z,66.11
2023-03-05T09:52:43.518Z,65.98
2023-03-05T09:53:43.491Z,65.15
2023-03-05T09:54:43.492Z,65.39
2023-03-05T09:55:43.464Z,65.52
2023-03-05T09:56:43.458Z,66.24
2023-03-05T09:57:43.448Z,65.70
2023-03-05T09:58:43.415Z,65.77
2023-03-05T09:59:43.397Z,65.33
2023-03-05T10:00:43.392Z,65.49
2023-03-05T10:01:43.388Z,65.56
2023-03-05T10:02:43.442Z,65.05
2023-03-05T10:03:43.396Z,65.36
2023-03-05T10:04:43.348Z,65.36
2023-03-05T10:05:43.333Z,65.15
2023-03-05T10:06:43.400Z,64.92
2023-03-05T10:07:43.344Z,64.50
2023-03-05T10:08:43.338Z,64.50
2023-03-05T10:09:43.289Z,64.50
2023-03-05T10:10:43.313Z,64.50
2023-03-05T10:11:43.290Z,65.15
2023-03-05T10:12:43.261Z,64.99
2023-03-05T10:13:43.240Z,64.95
2023-03-05T10:14:43.293Z,65.43
2023-03-05T10:15:43.251Z,65.53
2023-03-05T10:16:43.228Z,64.96
2023-03-05T10:17:43.214Z,64.37
2023-03-05T10:18:43.193Z,64.71
2023-03-05T10:19:43.210Z,65.22
2023-03-05T10:20:43.182Z,64.89
2023-03-05T10:21:43.171Z,64.47
2023-03-05T10:22:43.195Z,64.40
2023-03-05T10:23:43.134Z,64.81
2023-03-05T10:24:43.123Z,64.29
2023-03-05T10:25:43.142Z,64.40
2023-03-05T10:26:43.116Z,64.06
2023-03-05T10:27:43.141Z,64.19
2023-03-05T10:28:43.090Z,64.50
2023-03-05T10:29:43.070Z,64.71
2023-03-05T10:30:43.060Z,64.99
2023-03-05T10:31:43.141Z,64.14
2023-03-05T10:32:43.111Z,64.06
2023-03-05T10:33:43.041Z,62.97
2023-03-05T10:34:43.011Z,62.21
2023-03-05T10:35:43.044Z,62.90
2023-03-05T10:36:42.985Z,62.18
2023-03-05T10:37:42.994Z,62.59
2023-03-05T10:38:42.970Z,62.23
2023-03-05T10:39:42.944Z,61.91
2023-03-05T10:40:42.945Z,62.60
2023-03-05T10:41:42.946Z,61.76
2023-03-05T10:42:42.925Z,61.27
2023-03-05T10:43:42.917Z,61.81
2023-03-05T10:44:42.893Z,61.91
2023-03-05T10:45:42.967Z,61.99
2023-03-05T10:46:42.879Z,61.52
2023-03-05T10:47:42.857Z,61.00
2023-03-05T10:48:42.905Z,59.92
2023-03-05T10:49:42.825Z,59.00
2023-03-05T10:50:42.846Z,59.28
2023-03-05T10:51:42.821Z,59.03
2023-03-05T10:52:42.809Z,60.99
2023-03-05T10:53:42.808Z,62.02
2023-03-05T10:54:42.826Z,62.56
2023-03-05T10:55:42.777Z,62.95
2023-03-05T10:56:42.776Z,62.12
2023-03-05T10:57:42.740Z,63.20
2023-03-05T10:58:42.723Z,61.11
2023-03-05T10:59:42.771Z,60.75
2023-03-05T11:00:42.707Z,60.60
2023-03-05T11:01:42.741Z,60.39
2023-03-05T11:02:42.762Z,60.11
2023-03-05T11:03:42.678Z,60.83
2023-03-05T11:04:42.666Z,60.54
2023-03-05T11:05:42.667Z,59.44
2023-03-05T11:06:42.637Z,58.67
2023-03-05T11:07:42.622Z,59.89
2023-03-05T11:08:42.612Z,60.97
2023-03-05T11:09:42.599Z,61.77
2023-03-05T11:10:42.612Z,61.68
2023-03-05T11:11:42.618Z,59.96
2023-03-05T11:12:42.564Z,60.03
2023-03-05T11:13:42.614Z,59.93
2023-03-05T11:14:42.538Z,60.06
2023-03-05T11:15:42.553Z,60.91
2023-03-05T11:16:42.617Z,61.98
2023-03-05T11:17:42.863Z,61.40
2023-03-05T11:18:42.497Z,61.22
2023-03-05T11:19:42.485Z,62.28
2023-03-05T11:20:42.475Z,62.70
2023-03-05T11:21:42.466Z,62.79
2023-03-05T11:22:42.479Z,63.10
2023-03-05T11:23:42.434Z,62.97
2023-03-05T11:24:42.435Z,62.74
2023-03-05T11:25:42.463Z,62.53
2023-03-05T11:26:42.410Z,62.84
2023-03-05T11:27:42.385Z,62.40
2023-03-05T11:28:42.445Z,62.15
2023-03-05T11:29:42.377Z,62.90
2023-03-05T11:30:42.390Z,62.95
2023-03-05T11:31:42.346Z,62.19
2023-03-05T11:32:42.343Z,61.91
2023-03-05T11:33:42.359Z,62.43
2023-03-05T11:34:42.347Z,61.79
2023-03-05T11:35:42.375Z,62.12
2023-03-05T11:36:42.393Z,62.33
2023-03-05T11:37:42.286Z,62.77
2023-03-05T11:38:42.289Z,63.21
2023-03-05T11:39:42.315Z,63.62
2023-03-05T11:40:42.352Z,63.82
2023-03-05T11:41:42.242Z,63.75
2023-03-05T11:42:42.229Z,64.14
2023-03-05T11:43:42.213Z,63.52
2023-03-05T11:44:42.217Z,63.93
2023-03-05T11:45:42.258Z,63.93
2023-03-05T11:46:42.181Z,64.19
2023-03-05T11:47:42.192Z,64.40
2023-03-05T11:48:42.157Z,64.68
2023-03-05T11:49:42.151Z,64.47
2023-03-05T11:50:42.172Z,64.78
2023-03-05T11:51:42.139Z,64.54
2023-03-05T11:52:42.100Z,64.54
2023-03-05T11:53:42.111Z,64.00
2023-03-05T11:54:42.105Z,64.17
2023-03-05T11:55:42.113Z,64.06
2023-03-05T11:56:42.115Z,64.58
2023-03-05T11:57:42.061Z,63.93
2023-03-05T11:58:42.047Z,64.34
2023-03-05T11:59:42.031Z,63.93
2023-03-05T12:00:42.022Z,64.37
2023-03-05T12:01:42.035Z,64.78
2023-03-05T12:02:42.037Z,64.58
2023-03-05T12:03:42.027Z,64.14
2023-03-05T12:04:41.974Z,63.49
2023-03-05T12:05:41.946Z,62.87
2023-03-05T12:06:42.533Z,62.77
2023-03-05T12:07:41.980Z,63.07
2023-03-05T12:08:41.931Z,63.10
2023-03-05T12:09:42.354Z,63.39
2023-03-05T12:10:42.009Z,63.25
2023-03-05T12:11:42.250Z,62.70
2023-03-05T12:12:42.149Z,63.00
2023-03-05T12:13:43.050Z,62.87
2023-03-05T12:14:41.868Z,62.15
2023-03-05T12:15:42.083Z,61.74
2023-03-05T12:16:41.828Z,62.05
2023-03-05T12:17:42.251Z,61.94
2023-03-05T12:18:41.830Z,61.81
2023-03-05T12:19:41.841Z,61.91
2023-03-05T12:20:42.028Z,61.84
2023-03-05T12:21:41.836Z,61.58
2023-03-05T12:22:42.021Z,60.65
2023-03-05T12:23:42.073Z,60.75
2023-03-05T12:24:41.792Z,61.19
2023-03-05T12:25:41.817Z,61.27
2023-03-05T12:26:41.979Z,60.45
2023-03-05T12:27:42.365Z,60.27
2023-03-05T12:28:41.815Z,60.99
2023-03-05T12:29:41.701Z,60.86
2023-03-05T12:30:42.292Z,60.86
2023-03-05T12:31:41.851Z,60.06
2023-03-05T12:32:41.859Z,60.06
2023-03-05T12:33:41.637Z,59.93
2023-03-05T12:34:41.865Z,60.17
2023-03-05T12:35:41.695Z,59.63
2023-03-05T12:36:41.679Z,59.75
2023-03-05T12:37:41.654Z,60.09
2023-03-05T12:38:41.598Z,60.47
2023-03-05T12:39:41.800Z,60.58
2023-03-05T12:40:41.550Z,59.80
2023-03-05T12:41:41.838Z,59.36
2023-03-05T12:42:41.580Z,59.19
2023-03-05T12:43:41.561Z,59.29
2023-03-05T12:44:41.513Z,59.22
2023-03-05T12:45:41.522Z,59.77
2023-03-05T12:46:41.524Z,59.59
2023-03-05T12:47:41.520Z,61.17
2023-03-05T12:48:41.567Z,60.19
2023-03-05T12:49:41.529Z,58.95
2023-03-05T12:50:41.448Z,59.52
2023-03-05T12:51:41.794Z,59.83
2023-03-05T12:52:41.432Z,60.03